createdAt,value
2023-02-08T00:00:24.045Z,-2.51
2023-02-08T00:03:27.699Z,-2.55
2023-02-08T00:06:31.049Z,-2.67
2023-02-08T00:09:32.812Z,-2.74
2023-02-08T00:12:34.403Z,-2.68
2023-02-08T00:15:40.395Z,-2.71
2023-02-08T00:18:42.014Z,-2.74
2023-02-08T00:21:44.918Z,-2.72
2023-02-08T00:24:46.546Z,-2.65
2023-02-08T00:27:48.305Z,-2.63
2023-02-08T00:30:49.870Z,-2.59
2023-02-08T00:33:51.613Z,-2.64
2023-02-08T00:36:54.752Z,-2.67
2023-02-08T00:39:56.428Z,-2.72
2023-02-08T00:42:58.964Z,-2.69
2023-02-08T00:46:00.842Z,-2.66
2023-02-08T00:49:02.611Z,-2.61
2023-02-08T00:52:05.760Z,-2.48
2023-02-08T00:55:08.769Z,-2.46
2023-02-08T00:58:11.614Z,-2.43
2023-02-08T01:01:13.781Z,-2.41
2023-02-08T01:04:15.498Z,-2.40
2023-02-08T01:07:18.568Z,-2.43
2023-02-08T01:10:20.292Z,-2.49
2023-02-08T01:13:21.931Z,-2.48
2023-02-08T01:16:26.542Z,-2.55
2023-02-08T01:19:28.303Z,-2.66
2023-02-08T01:22:31.885Z,-2.73
2023-02-08T01:25:35.122Z,-2.81
2023-02-08T01:28:36.963Z,-2.81
2023-02-08T01:31:40.219Z,-2.86
2023-02-08T01:34:44.059Z,-2.90
2023-02-08T01:37:47.130Z,-2.96
2023-02-08T01:40:48.816Z,-3.04
2023-02-08T01:44:07.859Z,-3.08
2023-02-08T01:47:09.747Z,-3.07
2023-02-08T01:50:11.688Z,-3.02
2023-02-08T01:53:16.054Z,-2.99
2023-02-08T01:56:21.030Z,-3.03
2023-02-08T01:59:26.541Z,-2.97
2023-02-08T02:02:28.799Z,-3.00
2023-02-08T02:05:32.544Z,-3.00
2023-02-08T02:08:35.693Z,-2.99
2023-02-08T02:11:37.412Z,-2.98
2023-02-08T02:14:39.810Z,-3.05
2023-02-08T02:17:41.776Z,-3.10
2023-02-08T02:20:54.064Z,-3.12
2023-02-08T02:24:23.479Z,-3.12
2023-02-08T02:27:40.766Z,-3.08
2023-02-08T02:30:56.682Z,-3.05
2023-02-08T02:34:03.635Z,-3.01
2023-02-08T02:37:11.367Z,-3.04
2023-02-08T02:40:16.523Z,-3.06
2023-02-08T02:43:39.970Z,-3.09
2023-02-08T02:46:43.918Z,-3.11
2023-02-08T02:49:51.383Z,-3.13
2023-02-08T02:52:57.211Z,-3.17
2023-02-08T02:56:01.584Z,-3.13
2023-02-08T02:59:05.369Z,-3.14
2023-02-08T03:02:06.957Z,-3.14
2023-02-08T03:05:12.065Z,-3.16
2023-02-08T03:08:31.663Z,-3.19
2023-02-08T03:11:34.157Z,-3.16
2023-02-08T03:14:42.262Z,-3.22
2023-02-08T03:17:50.259Z,-3.25
2023-02-08T03:20:59.587Z,-3.24
2023-02-08T03:24:04.606Z,-3.33
2023-02-08T03:27:08.756Z,-3.27
2023-02-08T03:30:12.534Z,-3.28
2023-02-08T03:33:15.854Z,-3.30
2023-02-08T03:36:21.943Z,-3.29
2023-02-08T03:39:26.316Z,-3.28
2023-02-08T03:42:30.460Z,-3.25
2023-02-08T03:45:33.805Z,-3.28
2023-02-08T03:48:37.077Z,-3.29
2023-02-08T03:51:40.937Z,-3.36
2023-02-08T03:54:46.647Z,-3.45
2023-02-08T03:57:49.779Z,-3.48
2023-02-08T04:00:55.023Z,-3.46
2023-02-08T04:03:57.299Z,-3.43
2023-02-08T04:07:00.440Z,-3.39
2023-02-08T04:10:02.313Z,-3.34
2023-02-08T04:13:04.585Z,-3.33
2023-02-08T04:16:06.555Z,-3.33
2023-02-08T04:19:08.270Z,-3.27
2023-02-08T04:22:11.278Z,-3.26
2023-02-08T04:25:13.094Z,-3.25
2023-02-08T04:28:14.973Z,-3.22
2023-02-08T04:31:16.690Z,-3.18
2023-02-08T04:34:18.617Z,-3.11
2023-02-08T04:37:21.488Z,-3.07
2023-02-08T04:40:23.110Z,-3.12
2023-02-08T04:43:24.917Z,-3.23
2023-02-08T04:46:26.587Z,-3.25
2023-02-08T04:49:28.281Z,-3.30
2023-02-08T04:52:31.323Z,-3.36
2023-02-08T04:55:32.842Z,-3.32
2023-02-08T04:58:34.481Z,-3.29
2023-02-08T05:01:36.102Z,-3.25
2023-02-08T05:04:37.860Z,-3.30
2023-02-08T05:07:41.070Z,-3.30
2023-02-08T05:10:44.340Z,-3.40
2023-02-08T05:13:45.927Z,-3.41
2023-02-08T05:16:47.844Z,-3.48
2023-02-08T05:19:49.614Z,-3.57
2023-02-08T05:22:52.547Z,-3.62
2023-02-08T05:25:54.294Z,-3.63
2023-02-08T05:28:55.833Z,-3.62
2023-02-08T05:31:57.468Z,-3.64
2023-02-08T05:34:59.580Z,-3.66
2023-02-08T05:38:02.573Z,-3.72
2023-02-08T05:41:04.245Z,-3.73
2023-02-08T05:44:05.828Z,-3.80
2023-02-08T05:47:07.540Z,-3.86
2023-02-08T05:50:09.276Z,-3.95
2023-02-08T05:53:12.356Z,-3.97
2023-02-08T05:56:14.035Z,-3.98
2023-02-08T05:59:15.528Z,-4.05
2023-02-08T06:02:20.247Z,-4.04
2023-02-08T06:05:21.874Z,-4.11
2023-02-08T06:08:24.801Z,-4.20
2023-02-08T06:11:27.661Z,-4.11
2023-02-08T06:14:29.450Z,-4.16
2023-02-08T06:17:30.949Z,-4.15
2023-02-08T06:20:32.517Z,-4.16
2023-02-08T06:23:35.521Z,-4.20
2023-02-08T06:26:37.556Z,-4.25
2023-02-08T06:29:39.526Z,-4.26
2023-02-08T06:32:41.096Z,-4.21
2023-02-08T06:35:44.422Z,-4.12
2023-02-08T06:38:48.300Z,-4.09
2023-02-08T06:41:51.013Z,-4.11
2023-02-08T06:44:55.610Z,-4.08
2023-02-08T06:47:57.460Z,-3.99
2023-02-08T06:50:59.158Z,-4.01
2023-02-08T06:54:02.622Z,-4.00
2023-02-08T06:57:04.432Z,-3.95
2023-02-08T07:00:06.654Z,-3.95
2023-02-08T07:03:09.045Z,-3.95
2023-02-08T07:06:14.765Z,-3.92
2023-02-08T07:09:18.184Z,-3.86
2023-02-08T07:12:20.161Z,-3.86
2023-02-08T07:15:21.922Z,-3.80
2023-02-08T07:18:23.517Z,-3.70
2023-02-08T07:21:28.212Z,-3.59
2023-02-08T07:24:31.424Z,-3.55
2023-02-08T07:27:33.102Z,-3.53
2023-02-08T07:30:34.648Z,-3.54
2023-02-08T07:33:36.798Z,-3.56
2023-02-08T07:36:38.463Z,-3.52
2023-02-08T07:39:41.565Z,-3.48
2023-02-08T07:42:43.188Z,-3.47
2023-02-08T07:46:05.096Z,-3.41
2023-02-08T07:49:06.777Z,-3.38
2023-02-08T07:52:08.270Z,-3.29
2023-02-08T07:55:13.106Z,-3.23
2023-02-08T07:58:14.670Z,-3.13
2023-02-08T08:01:22.380Z,-3.06
2023-02-08T08:04:24.492Z,-2.95
2023-02-08T08:07:26.199Z,-2.79
2023-02-08T08:10:29.248Z,-2.58
2023-02-08T08:13:30.966Z,-2.44
2023-02-08T08:16:32.602Z,-2.31
2023-02-08T08:19:34.410Z,-2.22
2023-02-08T08:22:36.264Z,-2.23
2023-02-08T08:25:39.486Z,-2.25
2023-02-08T08:28:41.539Z,-2.14
2023-02-08T08:31:43.898Z,-2.05
2023-02-08T08:34:45.546Z,-1.95
2023-02-08T08:37:47.222Z,-1.88
2023-02-08T08:40:50.165Z,-1.79
2023-02-08T08:43:51.729Z,-1.71
2023-02-08T08:46:54.554Z,-1.62
2023-02-08T08:49:58.085Z,-1.55
2023-02-08T08:53:01.538Z,-1.42
2023-02-08T08:56:05.172Z,-1.31
2023-02-08T08:59:06.745Z,-1.17
2023-02-08T09:02:09.926Z,-1.04
2023-02-08T09:05:11.779Z,-0.89
2023-02-08T09:08:13.895Z,-0.77
2023-02-08T09:11:17.132Z,-0.57
2023-02-08T09:14:18.900Z,-0.42
2023-02-08T09:17:20.709Z,-0.31
2023-02-08T09:20:22.520Z,-0.04
2023-02-08T09:23:24.179Z,0.09
2023-02-08T09:26:28.024Z,0.17
2023-02-08T09:29:30.298Z,0.20
2023-02-08T09:32:35.746Z,0.35
2023-02-08T09:35:37.576Z,0.38
2023-02-08T09:38:39.871Z,0.44
2023-02-08T09:41:52.993Z,0.34
2023-02-08T09:45:15.190Z,0.44
2023-02-08T09:48:21.310Z,0.48
2023-02-08T09:51:28.200Z,0.62
2023-02-08T09:54:32.223Z,0.82
2023-02-08T09:57:37.719Z,0.80
2023-02-08T10:00:41.562Z,0.90
2023-02-08T10:03:46.831Z,1.04
2023-02-08T10:06:50.169Z,1.21
2023-02-08T10:09:53.110Z,1.36
2023-02-08T10:13:02.920Z,1.54
2023-02-08T10:16:08.521Z,1.51
2023-02-08T10:19:14.408Z,1.69
2023-02-08T10:22:23.077Z,1.75
2023-02-08T10:25:33.361Z,1.72
2023-02-08T10:28:42.577Z,1.81
2023-02-08T10:32:05.514Z,1.71
2023-02-08T10:35:11.274Z,1.72
2023-02-08T10:38:37.245Z,1.86
2023-02-08T10:41:47.431Z,2.24
2023-02-08T10:45:00.626Z,2.37
2023-02-08T10:48:05.899Z,2.35
2023-02-08T10:51:11.586Z,2.35
2023-02-08T10:54:14.365Z,2.36
2023-02-08T10:57:18.035Z,2.39
2023-02-08T11:00:22.488Z,2.47
2023-02-08T11:03:25.265Z,2.56
2023-02-08T11:06:27.410Z,2.53
2023-02-08T11:09:31.210Z,2.63
2023-02-08T11:12:32.946Z,2.70
2023-02-08T11:15:40.152Z,2.69
2023-02-08T11:18:47.748Z,2.80
2023-02-08T11:21:50.749Z,2.79
2023-02-08T11:24:57.141Z,2.83
2023-02-08T11:28:03.083Z,2.88
2023-02-08T11:31:16.438Z,2.91
2023-02-08T11:34:24.390Z,3.03
2023-02-08T11:37:28.780Z,3.11
2023-02-08T11:40:34.396Z,3.28
2023-02-08T11:43:36.354Z,3.33
2023-02-08T11:46:42.088Z,3.31
2023-02-08T11:49:44.791Z,3.53
2023-02-08T11:52:51.940Z,3.51
2023-02-08T11:56:04.865Z,3.65
2023-02-08T11:59:17.652Z,3.63
2023-02-08T12:02:31.173Z,3.65
2023-02-08T12:05:37.842Z,3.88
2023-02-08T12:08:41.866Z,3.89
2023-02-08T12:11:45.364Z,3.96
2023-02-08T12:14:53.942Z,3.91
2023-02-08T12:18:05.287Z,3.83
2023-02-08T12:21:11.166Z,3.83
2023-02-08T12:24:17.515Z,3.66
2023-02-08T12:27:29.570Z,3.68
2023-02-08T12:30:34.056Z,3.75
2023-02-08T12:33:43.684Z,3.88
2023-02-08T12:37:12.589Z,3.88
2023-02-08T12:40:41.059Z,4.12
2023-02-08T12:43:47.866Z,4.28
2023-02-08T12:46:51.950Z,4.36
2023-02-08T12:50:02.931Z,4.28
2023-02-08T12:53:10.377Z,4.23
2023-02-08T12:56:16.802Z,4.21
2023-02-08T12:59:22.964Z,4.28
2023-02-08T13:02:28.808Z,4.25
2023-02-08T13:05:34.676Z,4.28
2023-02-08T13:08:40.854Z,4.39
2023-02-08T13:11:45.445Z,4.60
2023-02-08T13:14:50.206Z,4.70
2023-02-08T13:17:54.166Z,4.70
2023-02-08T13:21:00.117Z,4.61
2023-02-08T13:24:02.997Z,4.78
2023-02-08T13:27:07.456Z,4.84
2023-02-08T13:30:17.446Z,4.59
2023-02-08T13:33:22.299Z,4.56
2023-02-08T13:36:27.256Z,4.57
2023-02-08T13:39:35.058Z,4.69
2023-02-08T13:42:39.758Z,4.63
2023-02-08T13:45:44.184Z,4.58
2023-02-08T13:48:47.942Z,4.54
2023-02-08T13:51:54.352Z,4.51
2023-02-08T13:55:10.869Z,4.63
2023-02-08T13:58:27.336Z,4.55
2023-02-08T14:01:30.058Z,4.50
2023-02-08T14:04:36.466Z,4.51
2023-02-08T14:07:43.151Z,4.48
2023-02-08T14:10:50.680Z,4.46
2023-02-08T14:13:54.476Z,4.43
2023-02-08T14:17:09.696Z,4.42
2023-02-08T14:20:17.743Z,4.35
2023-02-08T14:23:24.546Z,4.35
2023-02-08T14:26:27.065Z,4.29
2023-02-08T14:29:32.838Z,4.27
2023-02-08T14:32:35.833Z,4.22
2023-02-08T14:35:39.585Z,4.24
2023-02-08T14:38:53.613Z,4.26
2023-02-08T14:42:00.204Z,4.21
2023-02-08T14:45:03.634Z,4.16
2023-02-08T14:48:19.160Z,4.06
2023-02-08T14:51:24.397Z,4.04
2023-02-08T14:54:36.738Z,3.98
2023-02-08T14:57:41.178Z,3.91
2023-02-08T15:00:43.045Z,3.86
2023-02-08T15:03:45.917Z,3.83
2023-02-08T15:07:02.919Z,3.76
2023-02-08T15:10:10.725Z,3.69
2023-02-08T15:13:18.390Z,3.61
2023-02-08T15:16:20.493Z,3.60
2023-02-08T15:19:24.387Z,3.47
2023-02-08T15:22:35.003Z,3.44
2023-02-08T15:25:38.903Z,3.39
2023-02-08T15:28:44.212Z,3.27
2023-02-08T15:31:46.115Z,3.11
2023-02-08T15:34:50.278Z,3.03
2023-02-08T15:37:52.719Z,2.94
2023-02-08T15:41:04.829Z,2.84
2023-02-08T15:44:16.646Z,2.78
2023-02-08T15:47:21.982Z,2.66
2023-02-08T15:50:24.584Z,2.62
2023-02-08T15:53:27.387Z,2.59
2023-02-08T15:56:38.634Z,2.53
2023-02-08T15:59:45.856Z,2.45
2023-02-08T16:02:51.784Z,2.35
2023-02-08T16:05:55.757Z,2.26
2023-02-08T16:08:58.808Z,2.20
2023-02-08T16:12:01.972Z,2.09
2023-02-08T16:15:03.723Z,2.00
2023-02-08T16:18:05.565Z,1.93
2023-02-08T16:21:21.917Z,1.87
2023-02-08T16:24:24.997Z,1.81
2023-02-08T16:27:29.897Z,1.71
2023-02-08T16:30:31.909Z,1.57
2023-02-08T16:33:37.286Z,1.43
2023-02-08T16:36:40.637Z,1.37
2023-02-08T16:39:52.525Z,1.31
2023-02-08T16:43:14.952Z,1.24
2023-02-08T16:46:17.813Z,1.17
2023-02-08T16:49:20.018Z,1.11
2023-02-08T16:52:22.718Z,1.04
2023-02-08T16:55:25.495Z,0.91
2023-02-08T16:58:28.483Z,0.89
2023-02-08T17:01:30.407Z,0.89
2023-02-08T17:04:32.617Z,0.91
2023-02-08T17:07:34.599Z,0.88
2023-02-08T17:10:36.360Z,0.86
2023-02-08T17:13:39.595Z,0.77
2023-02-08T17:16:42.442Z,0.65
2023-02-08T17:19:44.529Z,0.64
2023-02-08T17:22:46.530Z,0.63
2023-02-08T17:25:48.743Z,0.59
2023-02-08T17:28:51.943Z,0.58
2023-02-08T17:31:53.744Z,0.53
2023-02-08T17:34:56.991Z,0.49
2023-02-08T17:37:59.306Z,0.45
2023-02-08T17:41:03.420Z,0.37
2023-02-08T17:44:07.051Z,0.35
2023-02-08T17:47:08.850Z,0.31
2023-02-08T17:50:11.146Z,0.23
2023-02-08T17:53:13.104Z,0.17
2023-02-08T17:56:16.269Z,0.13
2023-02-08T17:59:19.401Z,0.14
2023-02-08T18:02:21.096Z,0.11
2023-02-08T18:05:23.656Z,0.09
2023-02-08T18:08:25.886Z,0.03
2023-02-08T18:11:27.590Z,0.03
2023-02-08T18:14:30.815Z,-0.03
2023-02-08T18:17:32.841Z,-0.06
2023-02-08T18:20:34.765Z,-0.08
2023-02-08T18:23:36.585Z,-0.15
2023-02-08T18:26:38.313Z,-0.23
2023-02-08T18:29:41.425Z,-0.24
2023-02-08T18:32:43.144Z,-0.30
2023-02-08T18:35:48.061Z,-0.32
2023-02-08T18:38:51.261Z,-0.31
2023-02-08T18:41:52.988Z,-0.41
2023-02-08T18:44:56.090Z,-0.38
2023-02-08T18:47:58.847Z,-0.39
2023-02-08T18:51:02.883Z,-0.28
2023-02-08T18:54:04.748Z,-0.21
2023-02-08T18:57:09.709Z,-0.21
2023-02-08T19:00:14.305Z,-0.16
2023-02-08T19:03:16.211Z,-0.19
2023-02-08T19:06:21.114Z,-0.22
2023-02-08T19:09:22.857Z,-0.25
2023-02-08T19:12:24.635Z,-0.26
2023-02-08T19:15:27.699Z,-0.30
2023-02-08T19:18:29.481Z,-0.36
2023-02-08T19:21:32.740Z,-0.40
2023-02-08T19:24:34.492Z,-0.40
2023-02-08T19:27:37.067Z,-0.39
2023-02-08T19:30:40.194Z,-0.35
2023-02-08T19:33:43.523Z,-0.35
2023-02-08T19:36:46.582Z,-0.40
2023-02-08T19:39:48.599Z,-0.34
2023-02-08T19:42:50.658Z,-0.38
2023-02-08T19:45:56.150Z,-0.40
2023-02-08T19:49:00.273Z,-0.40
2023-02-08T19:52:02.056Z,-0.37
2023-02-08T19:55:03.959Z,-0.32
2023-02-08T19:58:05.652Z,-0.35
2023-02-08T20:01:09.648Z,-0.36
2023-02-08T20:04:12.514Z,-0.42
2023-02-08T20:07:14.328Z,-0.40
2023-02-08T20:10:16.168Z,-0.39
2023-02-08T20:13:17.927Z,-0.42
2023-02-08T20:16:21.546Z,-0.41
2023-02-08T20:19:26.863Z,-0.37
2023-02-08T20:22:28.779Z,-0.44
2023-02-08T20:28:33.497Z,-0.55
2023-02-08T20:31:37.888Z,-0.63
2023-02-08T20:34:47.394Z,-0.59
2023-02-08T20:37:55.777Z,-0.69
2023-02-08T20:41:01.126Z,-0.75
2023-02-08T20:44:02.950Z,-0.77
2023-02-08T20:47:06.119Z,-0.77
2023-02-08T20:50:18.170Z,-0.75
2023-02-08T20:53:20.813Z,-0.76
2023-02-08T20:56:23.832Z,-0.79
2023-02-08T20:59:25.556Z,-0.78
2023-02-08T21:02:28.701Z,-0.77
2023-02-08T21:05:30.477Z,-0.77
2023-02-08T21:08:32.360Z,-0.83
2023-02-08T21:11:34.957Z,-0.84
2023-02-08T21:14:36.738Z,-0.89
2023-02-08T21:17:41.438Z,-1.01
2023-02-08T21:20:44.109Z,-0.97
2023-02-08T21:23:46.474Z,-0.96
2023-02-08T21:26:48.155Z,-1.01
2023-02-08T21:29:50.010Z,-1.07
2023-02-08T21:32:56.034Z,-1.10
2023-02-08T21:36:00.991Z,-1.17
2023-02-08T21:39:03.619Z,-1.20
2023-02-08T21:42:05.741Z,-1.22
2023-02-08T21:45:09.057Z,-1.20
2023-02-08T21:48:13.404Z,-1.22
2023-02-08T21:51:36.284Z,-1.19
2023-02-08T21:54:52.591Z,-1.15
2023-02-08T22:01:15.676Z,-1.18
2023-02-08T22:04:19.356Z,-1.19
2023-02-08T22:07:21.561Z,-1.25
2023-02-08T22:13:56.065Z,-1.31
2023-02-08T22:16:58.041Z,-1.38
2023-02-08T22:20:01.061Z,-1.36
2023-02-08T22:23:03.405Z,-1.42
2023-02-08T22:26:07.046Z,-1.43
2023-02-08T22:29:08.830Z,-1.48
2023-02-08T22:32:12.441Z,-1.58
2023-02-08T22:35:16.507Z,-1.56
2023-02-08T22:38:18.509Z,-1.62
2023-02-08T22:41:20.422Z,-1.54
2023-02-08T22:44:23.193Z,-1.44
2023-02-08T22:47:25.177Z,-1.48
2023-02-08T22:50:28.251Z,-1.57
2023-02-08T22:53:30.456Z,-1.57
2023-02-08T22:56:32.551Z,-1.66
2023-02-08T22:59:34.209Z,-1.66
2023-02-08T23:02:35.993Z,-1.72
2023-02-08T23:05:41.658Z,-1.67
2023-02-08T23:08:43.799Z,-1.71
2023-02-08T23:11:45.410Z,-1.73
2023-02-08T23:14:47.140Z,-1.76
2023-02-08T23:17:48.850Z,-1.84
2023-02-08T23:20:52.067Z,-1.88
2023-02-08T23:23:53.940Z,-1.90
2023-02-08T23:26:55.890Z,-2.02
2023-02-08T23:29:57.829Z,-2.09
2023-02-08T23:32:59.613Z,-2.11
2023-02-08T23:36:06.338Z,-2.07
2023-02-08T23:39:08.375Z,-1.98
2023-02-08T23:42:25.333Z,-2.02
2023-02-08T23:45:27.126Z,-2.07
2023-02-08T23:48:28.790Z,-2.12
2023-02-08T23:51:31.918Z,-2.20
2023-02-08T23:54:33.615Z,-2.13
2023-02-08T23:57:35.816Z,-2.12
